»·PEaware :: RNGR723 KNGP-KNGP

RNGR723 :: KNGP-KNGP

FLIGHT INFORMATION

Flight Status: Arrived
Operator: Unknown
More flights by this operator :: More flights under this callsign
Pilot: USN Avenger (31125)
Aircraft: BEECH AIRCRAFT T-6A TEXAN
(TEX2)
More flights by this aircraft type
Origin: KNGP Corpus Christi NAS/Truax
United States
Destination: KNGP Corpus Christi NAS/Truax
United States
More flights between these airports :: More routes between these airports
Route: KNGT KTFP
File this flight plan on PilotEdge
Remarks:
Altitude:
(Current/Filed)
4,500ft
Speed:
(Current/Filed)
240kts
Departed: 15-Nov-23 09:07 AM
Arrived: 15-Nov-23 10:00 AM
Distance/Time
Traveled:
0nm/0:53
Distance/Time
To Go:
Arrived

Flight Plot

Page will automatically refresh every two minutes.

Flight plan parsing failed; only flown route is shown


Map Options




Map Legend


Flown Route
Filed Route
Departure Airport
Arrival Airport
Navaid (VOR, NDB)
Fix

Horizontal Profiles

Position Reports

Time Latitude Longitude Heading Altitude Ground
Speed
15-Nov-23 08:57 27.698534 -97.284281 159 22ft 0kts
15-Nov-23 08:58 27.698532 -97.284280 159 22ft 0kts
15-Nov-23 08:59 27.698530 -97.284279 159 22ft 0kts
15-Nov-23 09:00 27.698529 -97.284278 159 22ft 0kts
15-Nov-23 09:01 27.698128 -97.284535 245 22ft 9kts
15-Nov-23 09:02 27.699376 -97.286554 224 22ft 11kts
15-Nov-23 09:03 27.695759 -97.290960 230 22ft 0kts
15-Nov-23 09:04 27.695758 -97.290961 230 22ft 0kts
15-Nov-23 09:05 27.694949 -97.291442 133 22ft 4kts
15-Nov-23 09:06 27.671803 -97.265513 130 587ft 181kts
15-Nov-23 09:07 27.698821 -97.244761 351 680ft 206kts
15-Nov-23 09:08 27.755035 -97.257311 351 567ft 207kts
15-Nov-23 09:09 27.816010 -97.272055 350 674ft 236kts
15-Nov-23 09:10 27.880409 -97.288067 353 1068ft 234kts
15-Nov-23 09:11 27.934762 -97.304021 343 4093ft 194kts
15-Nov-23 09:12 27.991365 -97.327172 340 4632ft 238kts
15-Nov-23 09:13 28.055067 -97.354519 338 4589ft 250kts
15-Nov-23 09:14 28.118563 -97.385531 332 4594ft 248kts
15-Nov-23 09:15 28.179002 -97.423647 329 4539ft 247kts
15-Nov-23 09:16 28.240718 -97.457747 337 4564ft 245kts
15-Nov-23 09:17 28.303974 -97.488108 339 4603ft 248kts
15-Nov-23 09:18 28.368643 -97.515788 342 4661ft 248kts
15-Nov-23 09:19 28.434022 -97.542676 340 4618ft 249kts
15-Nov-23 09:20 28.500290 -97.557984 2 4562ft 245kts
15-Nov-23 09:21 28.552642 -97.592598 291 2881ft 256kts
15-Nov-23 09:22 28.570162 -97.665088 294 1492ft 226kts
15-Nov-23 09:23 28.612328 -97.709452 358 1307ft 209kts
15-Nov-23 09:24 28.643069 -97.678021 114 1299ft 185kts
15-Nov-23 09:25 28.624435 -97.621046 107 1038ft 194kts
15-Nov-23 09:26 28.627740 -97.585238 293 786ft 144kts
15-Nov-23 09:27 28.635555 -97.625718 228 1076ft 124kts
15-Nov-23 09:28 28.618353 -97.609536 109 385ft 102kts
15-Nov-23 09:29 28.625458 -97.585236 324 1257ft 132kts
15-Nov-23 09:30 28.636546 -97.623904 259 1260ft 118kts
15-Nov-23 09:31 28.620585 -97.616942 108 330ft 71kts
15-Nov-23 09:33 28.610663 -97.583032 108 926ft 142kts
15-Nov-23 09:34 28.573342 -97.556206 151 2782ft 209kts
15-Nov-23 09:35 28.519841 -97.515748 141 2598ft 238kts
15-Nov-23 09:36 28.465475 -97.472987 144 2730ft 237kts
15-Nov-23 09:37 28.408663 -97.433766 148 2782ft 236kts
15-Nov-23 09:38 28.348906 -97.398595 151 2625ft 240kts
15-Nov-23 09:39 28.289727 -97.363102 149 2582ft 241kts
15-Nov-23 09:40 28.232066 -97.324834 146 2577ft 240kts
15-Nov-23 09:41 28.174735 -97.286509 146 2614ft 240kts
15-Nov-23 09:42 28.121911 -97.241359 139 2671ft 238kts
15-Nov-23 09:43 28.059138 -97.220143 178 1514ft 247kts
15-Nov-23 09:44 27.990862 -97.226262 186 1299ft 239kts
15-Nov-23 09:45 27.929707 -97.226732 132 1078ft 215kts
15-Nov-23 09:46 27.901451 -97.183822 43 1041ft 139kts
15-Nov-23 09:47 27.929616 -97.208528 311 782ft 134kts
15-Nov-23 09:48 27.913379 -97.211892 138 22ft 88kts
15-Nov-23 09:49 27.905516 -97.188865 349 783ft 125kts
15-Nov-23 09:50 27.928948 -97.216726 275 834ft 113kts
15-Nov-23 09:51 27.910723 -97.209407 137 137ft 109kts
15-Nov-23 09:52 27.898278 -97.168795 101 1493ft 201kts
15-Nov-23 09:53 27.851851 -97.161915 213 1187ft 245kts
15-Nov-23 09:54 27.786385 -97.170919 177 1149ft 238kts
15-Nov-23 09:55 27.734782 -97.195810 265 960ft 219kts
15-Nov-23 09:56 27.730825 -97.261553 259 1247ft 214kts
15-Nov-23 09:56 27.709070 -97.305496 154 987ft 188kts
15-Nov-23 09:58 27.692916 -97.262721 338 841ft 131kts
15-Nov-23 09:59 27.708635 -97.293599 232 729ft 111kts
15-Nov-23 10:00 27.690087 -97.286070 137 22ft 20kts
15-Nov-23 10:01 27.689577 -97.284067 95 22ft 0kts

Navigation Log

Ident Type
Flight plan parsing failed, navigation log unavailable